createdAt,value
2023-01-15T00:02:27.964Z,13.30
2023-01-15T00:05:15.583Z,13.20
2023-01-15T00:08:03.133Z,13.30
2023-01-15T00:10:50.771Z,13.30
2023-01-15T00:13:38.895Z,13.30
2023-01-15T00:16:28.354Z,13.60
2023-01-15T00:19:16.054Z,13.20
2023-01-15T00:22:03.900Z,13.30
2023-01-15T00:25:10.092Z,13.20
2023-01-15T00:27:57.743Z,13.20
2023-01-15T00:30:45.310Z,13.10
2023-01-15T00:33:32.862Z,13.00
2023-01-15T00:36:20.592Z,13.00
2023-01-15T00:39:08.092Z,13.10
2023-01-15T00:41:56.610Z,12.80
2023-01-15T00:44:44.617Z,12.80
2023-01-15T00:47:32.145Z,12.70
2023-01-15T00:50:19.854Z,12.60
2023-01-15T00:53:07.277Z,12.60
2023-01-15T00:55:54.915Z,12.50
2023-01-15T00:58:42.726Z,12.60
2023-01-15T01:01:30.529Z,12.60
2023-01-15T01:04:18.342Z,12.50
2023-01-15T01:07:06.041Z,12.50
2023-01-15T01:09:53.516Z,12.50
2023-01-15T01:12:41.609Z,12.50
2023-01-15T01:15:29.313Z,12.60
2023-01-15T01:18:16.798Z,12.70
2023-01-15T01:21:05.915Z,12.90
2023-01-15T01:23:54.033Z,13.00
2023-01-15T01:26:44.093Z,13.20
2023-01-15T01:29:31.734Z,13.30
2023-01-15T01:32:19.273Z,13.10
2023-01-15T01:35:07.235Z,13.20
2023-01-15T01:37:54.670Z,13.20
2023-01-15T01:40:42.747Z,13.40
2023-01-15T01:43:31.477Z,13.40
2023-01-15T01:46:19.519Z,13.30
2023-01-15T01:49:13.238Z,12.90
2023-01-15T01:52:15.298Z,13.20
2023-01-15T01:55:04.537Z,13.10
2023-01-15T01:57:58.669Z,13.00
2023-01-15T02:00:52.238Z,12.80
2023-01-15T02:03:40.314Z,12.60
2023-01-15T02:06:29.782Z,12.80
2023-01-15T02:09:17.479Z,12.70
2023-01-15T02:12:19.924Z,12.70
2023-01-15T02:15:19.698Z,13.10
2023-01-15T02:18:30.326Z,13.10
2023-01-15T02:21:44.208Z,12.80
2023-01-15T02:24:52.686Z,12.50
2023-01-15T02:27:48.713Z,12.40
2023-01-15T02:30:47.862Z,12.70
2023-01-15T02:34:20.518Z,12.60
2023-01-15T02:37:16.822Z,12.60
2023-01-15T02:40:07.687Z,12.50
2023-01-15T02:42:58.787Z,12.30
2023-01-15T02:45:52.373Z,12.30
2023-01-15T02:48:45.097Z,12.30
2023-01-15T02:52:12.983Z,12.20
2023-01-15T02:55:20.655Z,12.30
2023-01-15T02:58:14.914Z,12.20
2023-01-15T03:01:19.561Z,12.20
2023-01-15T03:04:31.153Z,12.30
2023-01-15T03:07:53.430Z,12.30
2023-01-15T03:11:06.329Z,12.30
2023-01-15T03:14:06.356Z,12.40
2023-01-15T03:17:01.698Z,12.40
2023-01-15T03:19:58.316Z,12.40
2023-01-15T03:22:53.894Z,12.50
2023-01-15T03:25:49.261Z,12.70
2023-01-15T03:28:39.812Z,12.70
2023-01-15T03:31:29.314Z,12.90
2023-01-15T03:34:17.043Z,13.00
2023-01-15T03:37:05.039Z,12.90
2023-01-15T03:39:53.678Z,12.90
2023-01-15T03:43:19.751Z,12.30
2023-01-15T03:46:20.752Z,12.70
2023-01-15T03:49:37.797Z,12.90
2023-01-15T03:52:45.617Z,12.80
2023-01-15T03:56:06.383Z,12.80
2023-01-15T03:59:37.583Z,12.90
2023-01-15T04:02:27.328Z,12.80
2023-01-15T04:05:17.194Z,12.60
2023-01-15T04:08:06.326Z,12.70
2023-01-15T04:11:02.751Z,12.80
2023-01-15T04:13:51.004Z,12.90
2023-01-15T04:16:38.503Z,12.70
2023-01-15T04:19:26.838Z,12.80
2023-01-15T04:22:14.301Z,12.70
2023-01-15T04:25:05.945Z,12.80
2023-01-15T04:27:57.178Z,12.40
2023-01-15T04:30:44.711Z,12.50
2023-01-15T04:33:32.408Z,12.70
2023-01-15T04:36:20.100Z,13.00
2023-01-15T04:39:07.600Z,13.10
2023-01-15T04:42:13.846Z,13.20
2023-01-15T04:45:01.510Z,13.20
2023-01-15T04:47:49.102Z,13.20
2023-01-15T04:50:38.479Z,13.30
2023-01-15T04:53:27.134Z,13.30
2023-01-15T04:56:14.674Z,13.40
2023-01-15T04:59:03.324Z,13.30
2023-01-15T05:02:03.255Z,13.50
2023-01-15T05:04:52.873Z,13.70
2023-01-15T05:07:40.645Z,13.50
2023-01-15T05:10:28.188Z,13.50
2023-01-15T05:13:15.593Z,13.60
2023-01-15T05:16:16.558Z,13.30
2023-01-15T05:19:07.669Z,13.60
2023-01-15T05:21:55.499Z,13.50
2023-01-15T05:24:43.120Z,13.60
2023-01-15T05:27:31.799Z,13.50
2023-01-15T05:30:19.412Z,13.50
2023-01-15T05:33:06.912Z,13.60
2023-01-15T05:35:54.729Z,13.80
2023-01-15T05:38:43.147Z,13.80
2023-01-15T05:41:49.277Z,13.90
2023-01-15T05:44:37.056Z,13.70
2023-01-15T05:47:24.560Z,13.10
2023-01-15T05:50:12.271Z,13.30
2023-01-15T05:52:59.828Z,13.50
2023-01-15T05:55:47.293Z,13.60
2023-01-15T05:58:35.522Z,13.40
2023-01-15T06:01:23.925Z,13.40
2023-01-15T06:04:14.538Z,13.60
2023-01-15T06:07:02.128Z,13.40
2023-01-15T06:09:49.819Z,13.30
2023-01-15T06:12:37.405Z,13.30
2023-01-15T06:15:25.085Z,13.10
2023-01-15T06:18:12.771Z,13.40
2023-01-15T06:21:06.569Z,12.80
2023-01-15T06:23:54.690Z,13.10
2023-01-15T06:26:42.208Z,12.70
2023-01-15T06:29:30.191Z,12.90
2023-01-15T06:32:17.873Z,12.60
2023-01-15T06:35:05.925Z,12.60
2023-01-15T06:37:53.623Z,12.40
2023-01-15T06:40:41.088Z,12.30
2023-01-15T06:43:48.107Z,13.10
2023-01-15T06:46:54.095Z,12.80
2023-01-15T06:49:41.729Z,12.60
2023-01-15T06:52:30.599Z,13.00
2023-01-15T06:55:19.250Z,13.30
2023-01-15T06:58:06.728Z,13.30
2023-01-15T07:00:56.378Z,13.30
2023-01-15T07:03:44.031Z,12.80
2023-01-15T07:06:32.436Z,12.80
2023-01-15T07:09:20.042Z,13.30
2023-01-15T07:12:07.704Z,13.40
2023-01-15T07:14:55.354Z,13.60
2023-01-15T07:17:42.911Z,12.70
2023-01-15T07:20:30.604Z,13.30
2023-01-15T07:23:18.074Z,13.30
2023-01-15T07:26:05.877Z,12.30
2023-01-15T07:28:53.749Z,12.50
2023-01-15T07:31:44.592Z,13.20
2023-01-15T07:34:32.329Z,13.40
2023-01-15T07:37:19.824Z,13.50
2023-01-15T07:40:08.323Z,13.70
2023-01-15T07:43:15.407Z,13.40
2023-01-15T07:46:22.129Z,13.60
2023-01-15T07:49:30.278Z,13.90
2023-01-15T07:52:20.200Z,13.90
2023-01-15T07:55:09.464Z,13.90
2023-01-15T07:57:57.364Z,13.90
2023-01-15T08:00:44.975Z,14.10
2023-01-15T08:03:32.616Z,14.10
2023-01-15T08:06:20.202Z,14.20
2023-01-15T08:09:07.726Z,14.20
2023-01-15T08:12:14.080Z,14.20
2023-01-15T08:15:14.189Z,14.40
2023-01-15T08:18:02.195Z,14.50
2023-01-15T08:20:49.793Z,14.60
2023-01-15T08:23:37.325Z,14.60
2023-01-15T08:26:25.015Z,14.60
2023-01-15T08:29:12.607Z,14.80
2023-01-15T08:32:03.079Z,14.80
2023-01-15T08:34:50.751Z,14.90
2023-01-15T08:37:38.422Z,15.00
2023-01-15T08:40:25.968Z,15.20
2023-01-15T08:43:13.568Z,15.20
2023-01-15T08:46:04.780Z,15.20
2023-01-15T08:48:53.486Z,15.40
2023-01-15T08:51:41.065Z,15.60
2023-01-15T08:54:28.689Z,15.50
2023-01-15T08:57:16.246Z,15.30
2023-01-15T09:00:05.448Z,15.50
2023-01-15T09:02:52.940Z,15.30
2023-01-15T09:05:40.979Z,15.40
2023-01-15T09:08:30.096Z,15.50
2023-01-15T09:11:17.751Z,15.70
2023-01-15T09:14:05.428Z,15.90
2023-01-15T09:16:52.942Z,15.80
2023-01-15T09:19:40.680Z,15.70
2023-01-15T09:22:31.082Z,15.70
2023-01-15T09:25:20.180Z,15.70
2023-01-15T09:28:07.993Z,15.50
2023-01-15T09:30:56.307Z,15.50
2023-01-15T09:33:43.886Z,15.50
2023-01-15T09:36:34.872Z,15.20
2023-01-15T09:39:22.464Z,15.50
2023-01-15T09:42:26.376Z,15.70
2023-01-15T09:45:42.678Z,15.60
2023-01-15T09:49:06.665Z,15.70
2023-01-15T09:52:37.804Z,15.70
2023-01-15T09:55:34.276Z,15.80
2023-01-15T09:58:36.544Z,15.90
2023-01-15T10:01:33.698Z,15.90
2023-01-15T10:04:43.808Z,15.90
2023-01-15T10:08:03.726Z,15.90
2023-01-15T10:11:01.629Z,16.10
2023-01-15T10:14:29.123Z,15.90
2023-01-15T10:17:35.185Z,16.00
2023-01-15T10:20:57.584Z,16.00
2023-01-15T10:24:09.338Z,15.50
2023-01-15T10:26:59.790Z,15.70
2023-01-15T10:30:01.474Z,15.90
2023-01-15T10:33:02.491Z,16.00
2023-01-15T10:36:16.133Z,15.70
2023-01-15T10:39:40.181Z,16.00
2023-01-15T10:42:52.712Z,16.20
2023-01-15T10:45:48.463Z,16.20
2023-01-15T10:48:50.326Z,16.10
2023-01-15T10:51:46.770Z,16.10
2023-01-15T10:54:49.218Z,16.30
2023-01-15T10:58:08.910Z,16.30
2023-01-15T11:01:07.392Z,16.40
2023-01-15T11:03:55.256Z,16.20
2023-01-15T11:06:43.161Z,15.80
2023-01-15T11:09:32.519Z,15.80
2023-01-15T11:12:47.719Z,15.20
2023-01-15T11:15:53.960Z,14.80
2023-01-15T11:19:04.183Z,15.10
2023-01-15T11:21:53.784Z,15.20
2023-01-15T11:24:53.971Z,15.60
2023-01-15T11:27:41.759Z,15.00
2023-01-15T11:30:38.350Z,15.20
2023-01-15T11:33:30.315Z,15.60
2023-01-15T11:36:25.617Z,15.70
2023-01-15T11:39:30.945Z,15.60
2023-01-15T11:42:37.550Z,15.40
2023-01-15T11:45:46.762Z,15.00
2023-01-15T11:49:07.005Z,15.40
2023-01-15T11:51:58.961Z,15.40
2023-01-15T11:54:51.855Z,15.10
2023-01-15T11:57:40.792Z,15.90
2023-01-15T12:00:38.764Z,15.50
2023-01-15T12:03:34.504Z,15.90
2023-01-15T12:06:24.081Z,15.90
2023-01-15T12:09:30.305Z,16.10
2023-01-15T12:12:46.738Z,15.90
2023-01-15T12:16:18.080Z,16.00
2023-01-15T12:20:01.820Z,16.20
2023-01-15T12:23:25.956Z,16.10
2023-01-15T12:26:35.548Z,16.10
2023-01-15T12:29:29.809Z,16.10
2023-01-15T12:32:25.150Z,15.80
2023-01-15T12:35:31.850Z,15.80
2023-01-15T12:38:46.704Z,15.80
2023-01-15T12:42:02.262Z,15.80
2023-01-15T12:45:02.019Z,16.00
2023-01-15T12:48:26.134Z,16.00
2023-01-15T12:51:27.215Z,15.90
2023-01-15T12:54:23.636Z,15.80
2023-01-15T12:57:31.231Z,15.50
2023-01-15T13:00:42.978Z,15.60
2023-01-15T13:03:45.315Z,15.40
2023-01-15T13:06:35.662Z,15.40
2023-01-15T13:09:48.266Z,15.30
2023-01-15T13:12:36.496Z,15.20
2023-01-15T13:15:33.572Z,15.00
2023-01-15T13:18:32.389Z,14.60
2023-01-15T13:21:21.643Z,15.20
2023-01-15T13:24:27.664Z,14.90
2023-01-15T13:27:29.965Z,15.10
2023-01-15T13:30:48.010Z,15.00
2023-01-15T13:33:46.779Z,14.90
2023-01-15T13:36:45.687Z,14.70
2023-01-15T13:39:43.921Z,14.60
2023-01-15T13:42:32.763Z,14.50
2023-01-15T13:45:28.075Z,14.50
2023-01-15T13:48:18.782Z,14.20
2023-01-15T13:51:17.310Z,14.40
2023-01-15T13:54:11.084Z,14.80
2023-01-15T13:57:34.581Z,14.80
2023-01-15T14:00:38.246Z,14.70
2023-01-15T14:03:32.995Z,14.60
2023-01-15T14:06:20.630Z,15.00
2023-01-15T14:09:34.894Z,15.00
2023-01-15T14:12:50.215Z,14.90
2023-01-15T14:15:49.984Z,14.90
2023-01-15T14:19:22.295Z,14.90
2023-01-15T14:22:34.051Z,14.30
2023-01-15T14:25:46.038Z,15.00
2023-01-15T14:28:52.062Z,15.40
2023-01-15T14:31:51.200Z,15.10
2023-01-15T14:34:40.224Z,15.30
2023-01-15T14:37:47.005Z,14.80
2023-01-15T14:40:36.774Z,14.80
2023-01-15T14:43:26.128Z,14.60
2023-01-15T14:46:41.586Z,14.90
2023-01-15T14:49:42.444Z,14.70
2023-01-15T14:52:30.939Z,14.50
2023-01-15T14:55:20.993Z,14.70
2023-01-15T14:58:36.413Z,14.60
2023-01-15T15:01:45.119Z,14.50
2023-01-15T15:04:51.335Z,14.80
2023-01-15T15:07:48.076Z,14.80
2023-01-15T15:10:43.857Z,14.70
2023-01-15T15:13:47.626Z,14.70
2023-01-15T15:16:48.368Z,14.40
2023-01-15T15:19:45.442Z,14.70
2023-01-15T15:22:34.525Z,14.80
2023-01-15T15:25:27.727Z,14.70
2023-01-15T15:28:15.209Z,14.40
2023-01-15T15:31:03.445Z,14.20
2023-01-15T15:33:50.989Z,14.10
2023-01-15T15:36:39.613Z,14.50
2023-01-15T15:39:44.845Z,14.00
2023-01-15T15:43:06.290Z,14.40
2023-01-15T15:46:15.492Z,14.30
2023-01-15T15:49:05.765Z,14.20
2023-01-15T15:51:56.335Z,14.00
2023-01-15T15:54:43.789Z,14.50
2023-01-15T15:57:35.303Z,14.20
2023-01-15T16:00:43.607Z,14.40
2023-01-15T16:03:33.509Z,14.60
2023-01-15T16:06:26.050Z,14.40
2023-01-15T16:09:13.549Z,14.20
2023-01-15T16:12:07.452Z,13.80
2023-01-15T16:14:56.827Z,14.00
2023-01-15T16:17:46.100Z,14.20
2023-01-15T16:20:34.064Z,13.70
2023-01-15T16:23:29.021Z,13.80
2023-01-15T16:26:23.234Z,13.60
2023-01-15T16:29:25.894Z,13.90
2023-01-15T16:32:17.850Z,13.40
2023-01-15T16:35:16.217Z,13.70
2023-01-15T16:38:05.660Z,13.90
2023-01-15T16:40:54.119Z,13.60
2023-01-15T16:44:01.447Z,13.80
2023-01-15T16:47:00.362Z,13.20
2023-01-15T16:49:47.886Z,13.10
2023-01-15T16:53:01.993Z,13.40
2023-01-15T16:55:50.340Z,13.50
2023-01-15T16:58:41.518Z,13.30
2023-01-15T17:01:35.108Z,13.50
2023-01-15T17:04:29.908Z,13.50
2023-01-15T17:07:29.730Z,13.60
2023-01-15T17:10:27.276Z,13.90
2023-01-15T17:13:20.729Z,13.80
2023-01-15T17:16:23.164Z,13.80
2023-01-15T17:19:11.785Z,13.00
2023-01-15T17:21:59.356Z,13.40
2023-01-15T17:24:49.884Z,13.20
2023-01-15T17:27:37.447Z,13.30
2023-01-15T17:30:31.080Z,13.50
2023-01-15T17:33:20.776Z,13.70
2023-01-15T17:36:10.354Z,13.50
2023-01-15T17:38:58.028Z,13.60
2023-01-15T17:41:45.490Z,13.70
2023-01-15T17:44:33.011Z,13.40
2023-01-15T17:47:20.489Z,13.70
2023-01-15T17:50:08.643Z,13.60
2023-01-15T17:52:56.297Z,13.80
2023-01-15T17:56:02.489Z,13.50
2023-01-15T17:59:08.604Z,13.80
2023-01-15T18:02:15.108Z,13.80
2023-01-15T18:05:21.209Z,13.60
2023-01-15T18:08:12.623Z,13.60
2023-01-15T18:11:00.089Z,13.60
2023-01-15T18:13:47.664Z,13.50
2023-01-15T18:16:35.462Z,13.50
2023-01-15T18:19:22.998Z,13.70
2023-01-15T18:22:12.968Z,13.60
2023-01-15T18:25:00.534Z,13.60
2023-01-15T18:27:48.283Z,13.70
2023-01-15T18:30:35.812Z,13.70
2023-01-15T18:33:23.398Z,13.50
2023-01-15T18:36:14.159Z,13.40
2023-01-15T18:39:06.475Z,13.50
2023-01-15T18:41:54.004Z,13.40
2023-01-15T18:45:00.363Z,13.40
2023-01-15T18:47:47.865Z,13.40
2023-01-15T18:50:35.438Z,13.40
2023-01-15T18:53:23.334Z,13.40
2023-01-15T18:56:10.780Z,13.60
2023-01-15T18:58:58.274Z,13.50
2023-01-15T19:01:46.766Z,13.50
2023-01-15T19:04:34.549Z,13.60
2023-01-15T19:07:22.256Z,13.50
2023-01-15T19:10:13.107Z,13.70
2023-01-15T19:13:03.064Z,13.20
2023-01-15T19:16:10.049Z,13.70
2023-01-15T19:18:57.614Z,13.40
2023-01-15T19:21:47.138Z,13.60
2023-01-15T19:24:35.967Z,13.60
2023-01-15T19:27:23.979Z,13.70
2023-01-15T19:30:12.307Z,13.40
2023-01-15T19:32:59.925Z,13.60
2023-01-15T19:35:47.414Z,13.60
2023-01-15T19:38:42.688Z,13.70
2023-01-15T19:41:49.113Z,13.60
2023-01-15T19:44:55.308Z,13.80
2023-01-15T19:48:03.019Z,13.70
2023-01-15T19:50:54.486Z,13.30
2023-01-15T19:53:42.115Z,13.70
2023-01-15T19:56:29.604Z,13.60
2023-01-15T19:59:17.107Z,13.60
2023-01-15T20:02:04.664Z,13.70
2023-01-15T20:04:52.204Z,13.60
2023-01-15T20:07:40.508Z,13.60
2023-01-15T20:10:32.011Z,13.60
2023-01-15T20:13:43.148Z,13.50
2023-01-15T20:16:30.637Z,13.60
2023-01-15T20:19:18.104Z,13.60
2023-01-15T20:22:05.649Z,13.60
2023-01-15T20:24:53.859Z,13.60
2023-01-15T20:27:42.058Z,13.50
2023-01-15T20:30:30.059Z,13.60
2023-01-15T20:33:17.572Z,13.50
2023-01-15T20:36:05.900Z,13.50
2023-01-15T20:38:53.437Z,13.50
2023-01-15T20:41:59.551Z,13.50
2023-01-15T20:44:55.971Z,13.60
2023-01-15T20:48:03.259Z,13.50
2023-01-15T20:51:02.868Z,13.50
2023-01-15T20:53:51.877Z,13.60
2023-01-15T20:56:39.383Z,13.50
2023-01-15T20:59:26.920Z,13.50
2023-01-15T21:02:14.363Z,13.40
2023-01-15T21:05:01.844Z,13.50
2023-01-15T21:07:49.428Z,13.40
2023-01-15T21:10:36.972Z,13.40
2023-01-15T21:13:24.581Z,13.30
2023-01-15T21:16:15.019Z,13.30
2023-01-15T21:19:05.150Z,13.10
2023-01-15T21:21:52.713Z,13.00
2023-01-15T21:24:40.244Z,12.90
2023-01-15T21:27:27.839Z,12.90
2023-01-15T21:30:15.541Z,12.80
2023-01-15T21:33:03.194Z,12.70
2023-01-15T21:35:50.764Z,12.60
2023-01-15T21:38:38.715Z,12.50
2023-01-15T21:41:46.080Z,12.50
2023-01-15T21:44:35.889Z,12.40
2023-01-15T21:47:23.455Z,12.40
2023-01-15T21:50:11.471Z,12.30
2023-01-15T21:52:58.956Z,12.20
2023-01-15T21:55:51.030Z,12.20
2023-01-15T21:58:40.121Z,12.20
2023-01-15T22:01:28.001Z,12.20
2023-01-15T22:04:15.923Z,12.10
2023-01-15T22:07:03.914Z,12.00
2023-01-15T22:09:51.478Z,12.00
2023-01-15T22:12:43.057Z,12.00
2023-01-15T22:15:30.594Z,12.00
2023-01-15T22:18:18.066Z,12.00
2023-01-15T22:21:07.602Z,11.90
2023-01-15T22:23:55.352Z,11.80
2023-01-15T22:26:43.812Z,11.80
2023-01-15T22:29:38.326Z,11.70
2023-01-15T22:32:25.821Z,11.70
2023-01-15T22:35:13.415Z,11.70
2023-01-15T22:38:00.944Z,11.60
2023-01-15T22:40:48.379Z,11.50
2023-01-15T22:43:36.313Z,11.40
2023-01-15T22:46:23.836Z,11.30
2023-01-15T22:49:11.615Z,11.20
2023-01-15T22:51:59.202Z,11.10
2023-01-15T22:54:47.848Z,11.00
2023-01-15T22:57:36.491Z,11.00
2023-01-15T23:00:24.186Z,10.90
2023-01-15T23:03:11.759Z,10.80
2023-01-15T23:06:08.080Z,10.80
2023-01-15T23:08:59.330Z,10.70
2023-01-15T23:11:46.985Z,10.70
2023-01-15T23:14:34.545Z,10.80
2023-01-15T23:17:22.020Z,10.90
2023-01-15T23:20:11.571Z,10.90
2023-01-15T23:22:59.086Z,10.70
2023-01-15T23:25:46.665Z,10.80
2023-01-15T23:28:36.060Z,10.80
2023-01-15T23:31:26.034Z,10.80
2023-01-15T23:34:13.754Z,10.80
2023-01-15T23:37:01.341Z,10.70
2023-01-15T23:39:48.772Z,10.60
2023-01-15T23:42:55.189Z,10.80
2023-01-15T23:46:18.227Z,10.80
2023-01-15T23:49:11.854Z,10.90
2023-01-15T23:51:59.752Z,10.90
2023-01-15T23:54:47.267Z,10.90
2023-01-15T23:57:34.751Z,10.90
